• Join FlightAware (Why Join?)
  • Login
  • US Flag 
11:48AM EDT


 

Airport Tracker/Info


-or-


 

Live Flight TrackerFlight Track Log ✈ AFL150 ✈ 02-Feb-2014 ✈ UUEE / SVO - MUHA / HAV

Flight Track Log - Related Links

Times and Time Zones

All times are in EST time to prevent confusion due to time zone crossing. See the AFL150 flight status page for this flight to view local times or setup timezone preferences in your user account.

Time Position Orientation Groundspeed Altitude Reporting Facility
EST Latitude Longitude Course Direction KTS MPH feet Rate Location/Type
04:43AM 56.1325 36.9377 307° West  Level Estimated
04:44AM 56.2033 36.7651 306° West  Level Estimated
04:45AM 56.2738 36.5918 306° West  Level Estimated
04:46AM 56.3441 36.4180 306° West  Level Estimated
04:47AM 56.4141 36.2435 306° West  Level Estimated
04:48AM 56.4838 36.0683 306° West  Level Estimated
04:49AM 56.5533 35.8925 306° West  Level Estimated
04:50AM 56.6226 35.7161 306° West  Level Estimated
04:51AM 56.6916 35.5390 305° West  Level Estimated
04:52AM 56.7604 35.3612 305° West  Level Estimated
04:53AM 56.8289 35.1828 305° West  Level Estimated
04:54AM 56.8972 35.0038 305° West  Level Estimated
04:55AM 56.9652 34.8241 305° West  Level Estimated
04:56AM 57.0329 34.6437 305° West  Level Estimated
04:57AM 57.1004 34.4627 305° West  Level Estimated
04:58AM 57.1676 34.2811 304° West  Level Estimated
04:59AM 57.2346 34.0987 304° West  Level Estimated
05:00AM 57.3013 33.9157 304° West  Level Estimated
05:01AM 57.3677 33.7321 304° West  Level Estimated
05:02AM 57.4339 33.5477 304° West  Level Estimated
05:03AM 57.4997 33.3628 304° West  Level Estimated
05:04AM 57.5654 33.1771 303° West  Level Estimated
05:05AM 57.6307 32.9908 303° West  Level Estimated
05:06AM 57.6958 32.8038 303° West  Level Estimated
05:07AM 57.7606 32.6161 303° West  Level Estimated
05:08AM 57.8251 32.4278 303° West  Level Estimated
05:09AM 57.8893 32.2388 303° West  Level Estimated
05:10AM 57.9533 32.0491 302° West  Level Estimated
05:11AM 58.0169 31.8587 302° West  Level Estimated
05:12AM 58.0803 31.6677 302° West  Level Estimated
05:13AM 58.1434 31.4759 302° West  Level Estimated
05:14AM 58.2062 31.2835 302° West  Level Estimated
05:15AM 58.2687 31.0905 302° West  Level Estimated
05:16AM 58.3310 30.8967 302° West  Level Estimated
05:17AM 58.3929 30.7022 301° West  Level Estimated
05:18AM 58.4545 30.5071 301° West  Level Estimated
05:19AM 58.5159 30.3113 301° West  Level Estimated
05:20AM 58.5769 30.1148 301° West  Level Estimated
05:21AM 58.6376 29.9176 301° West  Level Estimated
05:22AM 58.6981 29.7198 301° West  Level Estimated
05:23AM 58.7582 29.5212 300° West  Level Estimated
05:24AM 58.8180 29.3220 300° West  Level Estimated
05:25AM 58.8775 29.1221 300° West  Level Estimated
05:26AM 58.9367 28.9215 300° West  Level Estimated
05:27AM 58.9957 28.7202 300° West  Level Estimated
05:28AM 59.0542 28.5182 299° West  Level Estimated
05:29AM 59.1125 28.3155 299° West  Level Estimated
05:30AM 59.1704 28.1121 299° West  Level Estimated
05:31AM 59.2281 27.9081 299° West  Level Estimated
05:32AM 59.2854 27.7034 299° West  Level Estimated
05:33AM 59.3424 27.4979 299° West  Level Estimated
05:34AM 59.3990 27.2918 298° West  Level Estimated
05:35AM 59.4554 27.0850 298° West  Level Estimated
05:36AM 59.5114 26.8775 298° West  Level Estimated
05:37AM 59.5671 26.6693 298° West  Level Estimated
05:38AM 59.6224 26.4605 298° West  Level Estimated
05:39AM 59.6774 26.2509 298° West  Level Estimated
05:40AM 59.7321 26.0407 297° West  Level Estimated
05:41AM 59.7865 25.8297 297° West  Level Estimated
05:42AM 59.8405 25.6181 297° West  Level Estimated
05:43AM 59.8941 25.4058 297° West  Level Estimated
05:44AM 59.9474 25.1928 297° West  Level Estimated
05:45AM 60.0004 24.9792 296° West  Level Estimated
05:46AM 60.0531 24.7648 296° West  Level Estimated
05:47AM 60.1053 24.5498 296° West  Level Estimated
05:48AM 60.1573 24.3340 296° West  Level Estimated
05:49AM 60.2089 24.1176 296° West  Level Estimated
05:50AM 60.2601 23.9006 296° West  Level Estimated
05:51AM 60.3110 23.6828 295° West  Level Estimated
05:52AM 60.3615 23.4644 295° West  Level Estimated
05:53AM 60.4116 23.2453 295° West  Level Estimated
05:54AM 60.4614 23.0255 295° West  Level Estimated
05:55AM 60.5109 22.8050 295° West  Level Estimated
05:56AM 60.5599 22.5839 294° West  Level Estimated
05:57AM 60.6086 22.3621 294° West  Level Estimated
05:58AM 60.6570 22.1396 294° West  Level Estimated
05:59AM 60.7049 21.9165 294° West  Level Estimated
06:00AM 60.7525 21.6927 294° West  Level Estimated
06:01AM 60.7997 21.4683 293° West  Level Estimated
06:02AM 60.8466 21.2431 293° West  Level Estimated
06:03AM 60.8930 21.0174 293° West  Level Estimated
06:04AM 60.9391 20.7909 293° West  Level Estimated
06:04AM 61.2033 22.4648 293° West 465 535 36,000  Level FlightAware ADS-B (ESKB)
06:09AM 61.6700 21.4756 293° West 462 532 36,000  Level FlightAware ADS-B (ESKB)
06:10AM 61.7716 21.2543 314° West 458 527 36,000  Level FlightAware ADS-B (ESKB)
06:12AM 61.8686 21.0406 314° West 458 527 36,000  Level FlightAware ADS-B (ESKB)
06:21AM 62.7247 19.0600 297° West 463 533 36,000  Level FlightAware ADS-B
06:22AM 62.7662 18.9591 312° West 465 535 36,000  Level FlightAware ADS-B
06:22AM 62.8113 18.8493 312° West 461 531 36,000  Level FlightAware ADS-B
06:23AM 62.8759 18.6907 312° West 466 536 36,000  Level FlightAware ADS-B
06:24AM 62.9248 18.5701 312° West 465 535 36,000  Level FlightAware ADS-B
06:24AM 62.9897 18.4089 312° West 466 536 36,000  Level FlightAware ADS-B
06:25AM 63.0319 18.3036 312° West 467 537 36,000  Level FlightAware ADS-B
06:25AM 63.0742 18.1972 311° West 466 536 36,000  Level FlightAware ADS-B
06:26AM 63.1262 18.0660 311° West 468 539 36,000  Level FlightAware ADS-B
06:28AM 63.1876 17.6843 290° West  Level Estimated
06:29AM 63.2135 17.4403 290° West  Level Estimated
06:30AM 63.2526 17.1900 289° West  Level Estimated
06:31AM 63.2913 16.9389 289° West  Level Estimated
06:32AM 63.3295 16.6873 289° West  Level Estimated
06:33AM 63.3673 16.4349 289° West  Level Estimated
06:34AM 63.4046 16.1820 288° West  Level Estimated
06:35AM 63.4415 15.9283 288° West  Level Estimated
06:36AM 63.4779 15.6740 288° West  Level Estimated
06:37AM 63.5139 15.4191 288° West  Level Estimated
06:38AM 63.5494 15.1635 287° West  Level Estimated
06:39AM 63.5845 14.9073 287° West  Level Estimated
06:40AM 63.6191 14.6504 287° West  Level Estimated
06:41AM 63.6533 14.3930 287° West  Level Estimated
06:42AM 63.6869 14.1349 287° West  Level Estimated
06:43AM 63.7202 13.8762 286° West  Level Estimated
06:44AM 63.7529 13.6169 286° West  Level Estimated
06:45AM 63.7852 13.3570 286° West  Level Estimated
06:46AM 63.8171 13.0965 286° West  Level Estimated
06:47AM 63.8484 12.8354 285° West  Level Estimated
06:48AM 63.8793 12.5738 285° West  Level Estimated
06:49AM 63.9097 12.3116 285° West  Level Estimated
06:50AM 63.9397 12.0488 285° West  Level Estimated
06:51AM 63.9691 11.7854 284° West  Level Estimated
06:52AM 63.9981 11.5215 284° West  Level Estimated
06:53AM 64.0266 11.2571 284° West  Level Estimated
06:54AM 64.0546 10.9921 284° West  Level Estimated
06:55AM 64.0822 10.7266 283° West  Level Estimated
06:56AM 64.1092 10.4606 283° West  Level Estimated
06:57AM 64.1358 10.1941 283° West  Level Estimated
06:58AM 64.1619 9.9270 283° West  Level Estimated
06:59AM 64.1874 9.6595 283° West  Level Estimated
07:00AM 64.2125 9.3914 282° West  Level Estimated
07:01AM 64.2372 9.1229 282° West  Level Estimated
07:02AM 64.2613 8.8539 282° West  Level Estimated
07:03AM 64.2849 8.5845 282° West  Level Estimated
07:04AM 64.3080 8.3146 281° West  Level Estimated
07:05AM 64.3306 8.0442 281° West  Level Estimated
07:06AM 64.3528 7.7734 281° West  Level Estimated
07:07AM 64.3744 7.5022 281° West  Level Estimated
07:08AM 64.3955 7.2305 280° West  Level Estimated
07:09AM 64.4162 6.9585 280° West  Level Estimated
07:10AM 64.4363 6.6860 280° West  Level Estimated
07:11AM 64.4559 6.4132 280° West  Level Estimated
07:12AM 64.4750 6.1399 279° West  Level Estimated
07:13AM 64.4936 5.8663 279° West  Level Estimated
07:14AM 64.5117 5.5923 279° West  Level Estimated
07:15AM 64.5293 5.3179 279° West  Level Estimated
07:16AM 64.5463 5.0432 278° West  Level Estimated
07:17AM 64.5629 4.7682 278° West  Level Estimated
07:18AM 64.5789 4.4928 278° West  Level Estimated
07:19AM 64.5945 4.2171 278° West  Level Estimated
07:20AM 64.6095 3.9411 277° West  Level Estimated
07:21AM 64.6240 3.6648 277° West  Level Estimated
07:22AM 64.6380 3.3883 277° West  Level Estimated
07:23AM 64.6515 3.1114 277° West  Level Estimated
07:24AM 64.6644 2.8342 276° West  Level Estimated
07:25AM 64.6768 2.5568 276° West  Level Estimated
07:26AM 64.6887 2.2792 276° West  Level Estimated
07:27AM 64.7001 2.0013 276° West  Level Estimated
07:28AM 64.7110 1.7232 275° West  Level Estimated
07:29AM 64.7214 1.4449 275° West  Level Estimated
07:30AM 64.7312 1.1663 275° West  Level Estimated
07:31AM 64.7405 0.8876 275° West  Level Estimated
07:32AM 64.7493 0.6087 274° West  Level Estimated
07:33AM 64.7575 0.3296 274° West  Level Estimated
07:34AM 64.7653 0.0503 274° West  Level Estimated
07:35AM 64.7725 -0.2291 274° West  Level Estimated
07:36AM 64.7791 -0.5087 273° West  Level Estimated
07:37AM 64.7853 -0.7883 273° West  Level Estimated
07:38AM 64.7909 -1.0682 273° West  Level Estimated
07:39AM 64.7960 -1.3481 273° West  Level Estimated
07:40AM 64.8006 -1.6281 272° West  Level Estimated
07:41AM 64.8046 -1.9082 272° West  Level Estimated
07:42AM 64.8082 -2.1884 272° West  Level Estimated
07:43AM 64.8111 -2.4687 272° West  Level Estimated
07:44AM 64.8136 -2.7490 271° West  Level Estimated
07:45AM 64.8155 -3.0294 271° West  Level Estimated
07:46AM 64.8169 -3.3098 271° West  Level Estimated
07:47AM 64.8178 -3.5902 271° West  Level Estimated
07:48AM 64.8182 -3.8707 270° West  Level Estimated
07:49AM 64.8180 -4.1511 270° West  Level Estimated
07:50AM 64.8173 -4.4315 270° West  Level Estimated
07:51AM 64.8160 -4.7119 270° West  Level Estimated
07:52AM 64.8143 -4.9923 269° West  Level Estimated
07:53AM 64.8120 -5.2726 269° West  Level Estimated
07:54AM 64.8092 -5.5529 269° West  Level Estimated
07:55AM 64.8058 -5.8331 269° West  Level Estimated
07:56AM 64.8019 -6.1133 268° West  Level Estimated
07:57AM 64.7975 -6.3934 268° West  Level Estimated
07:58AM 64.7926 -6.6733 268° West  Level Estimated
07:59AM 64.7871 -6.9532 268° West  Level Estimated
08:00AM 64.7812 -7.2329 267° West  Level Estimated
08:01AM 64.7746 -7.5125 267° West  Level Estimated
08:02AM 64.7676 -7.7920 267° West  Level Estimated
08:03AM 64.7600 -8.0713 266° West  Level Estimated
08:04AM 64.7520 -8.3504 266° West  Level Estimated
08:05AM 64.7433 -8.6294 266° West  Level Estimated
08:06AM 64.7342 -8.9082 266° West  Level Estimated
08:07AM 64.7245 -9.1868 265° West  Level Estimated
08:08AM 64.7144 -9.4652 265° West  Level Estimated
08:09AM 64.7037 -9.7434 265° West  Level Estimated
08:10AM 64.6924 -10.0213 265° West  Level Estimated
08:11AM 64.6807 -10.2990 264° West  Level Estimated
08:12AM 64.6684 -10.5765 264° West  Level Estimated
08:13AM 64.6556 -10.8537 264° West  Level Estimated
08:14AM 64.6423 -11.1307 264° West  Level Estimated
08:15AM 64.6285 -11.4074 263° West  Level Estimated
08:16AM 64.6142 -11.6838 263° West  Level Estimated
08:17AM 64.5993 -11.9599 263° West  Level Estimated
08:18AM 64.5839 -12.2356 263° West  Level Estimated
08:19AM 64.5681 -12.5111 262° West  Level Estimated
08:20AM 64.5517 -12.7863 262° West  Level Estimated
08:21AM 64.5348 -13.0611 262° West  Level Estimated
08:22AM 64.5173 -13.3355 262° West  Level Estimated
08:23AM 64.4994 -13.6096 261° West  Level Estimated
08:24AM 64.4810 -13.8834 261° West  Level Estimated
08:25AM 64.4620 -14.1567 261° West  Level Estimated
08:26AM 64.4426 -14.4297 261° West  Level Estimated
08:27AM 64.4226 -14.7023 260° West  Level Estimated
08:28AM 64.4021 -14.9745 260° West  Level Estimated
08:29AM 64.3812 -15.2463 260° West  Level Estimated
08:30AM 64.3597 -15.5176 260° West  Level Estimated
08:31AM 64.3377 -15.7886 260° West  Level Estimated
08:32AM 64.3153 -16.0591 259° West  Level Estimated
08:33AM 64.2923 -16.3291 259° West  Level Estimated
08:34AM 64.2688 -16.5987 259° West  Level Estimated
08:35AM 64.2449 -16.8679 259° West  Level Estimated
08:36AM 64.2204 -17.1365 258° West  Level Estimated
08:37AM 64.1955 -17.4047 258° West  Level Estimated
08:38AM 64.1701 -17.6724 258° West  Level Estimated
08:39AM 64.1441 -17.9396 258° West  Level Estimated
08:40AM 64.1177 -18.2063 257° West  Level Estimated
08:41AM 64.0908 -18.4725 257° West  Level Estimated
08:42AM 64.0634 -18.7382 257° West  Level Estimated
08:43AM 64.0356 -19.0033 257° West  Level Estimated
08:44AM 64.0072 -19.2679 256° West  Level Estimated
08:45AM 63.9784 -19.5320 256° West  Level Estimated
08:46AM 63.9491 -19.7955 256° West  Level Estimated
08:47AM 63.9193 -20.0585 256° West  Level Estimated
08:48AM 63.8890 -20.3209 255° West  Level Estimated
08:49AM 63.8583 -20.5827 255° West  Level Estimated
08:50AM 63.8271 -20.8440 255° West  Level Estimated
08:51AM 63.7954 -21.1046 255° West  Level Estimated
08:52AM 63.7632 -21.3647 254° West  Level Estimated
08:53AM 63.7306 -21.6242 254° West  Level Estimated
08:54AM 63.6976 -21.8831 254° West  Level Estimated
08:55AM 63.6640 -22.1414 254° West  Level Estimated
08:56AM 63.6300 -22.3990 254° West  Level Estimated
08:57AM 63.5956 -22.6561 253° West  Level Estimated
08:58AM 63.5606 -22.9125 253° West  Level Estimated
08:59AM 63.5253 -23.1683 253° West  Level Estimated
09:00AM 63.4894 -23.4234 253° West  Level Estimated
09:01AM 63.4531 -23.6779 252° West  Level Estimated
09:02AM 63.4164 -23.9318 252° West  Level Estimated
09:03AM 63.3792 -24.1850 252° West  Level Estimated
09:04AM 63.3416 -24.4375 252° West  Level Estimated
09:05AM 63.3035 -24.6894 252° West  Level Estimated
09:06AM 63.2650 -24.9406 251° West  Level Estimated
09:07AM 63.2260 -25.1912 251° West  Level Estimated
09:08AM 63.1866 -25.4410 251° West  Level Estimated
09:09AM 63.1468 -25.6902 251° West  Level Estimated
09:10AM 63.1065 -25.9387 250° West  Level Estimated
09:11AM 63.0658 -26.1865 250° West  Level Estimated
09:12AM 63.0247 -26.4336 250° West  Level Estimated
09:13AM 62.9831 -26.6800 250° West  Level Estimated
09:14AM 62.9411 -26.9257 250° West  Level Estimated
09:15AM 62.8987 -27.1707 249° West  Level Estimated
09:16AM 62.8558 -27.4150 249° West  Level Estimated
09:17AM 62.8125 -27.6585 249° West  Level Estimated
09:18AM 62.7688 -27.9014 249° West  Level Estimated
09:19AM 62.7247 -28.1435 248° West  Level Estimated
09:20AM 62.6802 -28.3849 248° West  Level Estimated
09:21AM 62.6353 -28.6256 248° West  Level Estimated
09:22AM 62.5899 -28.8655 248° West  Level Estimated
09:23AM 62.5442 -29.1047 248° West  Level Estimated
09:24AM 62.4980 -29.3432 247° West  Level Estimated
09:25AM 62.4515 -29.5809 247° West  Level Estimated
09:26AM 62.4045 -29.8179 247° West  Level Estimated
09:27AM 62.3571 -30.0541 247° West  Level Estimated
09:28AM 62.3093 -30.2896 247° West  Level Estimated
09:29AM 62.2612 -30.5243 246° West  Level Estimated
09:30AM 62.2126 -30.7583 246° West  Level Estimated
09:31AM 62.1637 -30.9916 246° West  Level Estimated
09:32AM 62.1143 -31.2241 246° West  Level Estimated
09:33AM 62.0646 -31.4558 245° Southwest  Level Estimated
09:34AM 62.0144 -31.6867 245° Southwest  Level Estimated
09:35AM 61.9639 -31.9169 245° Southwest  Level Estimated
09:36AM 61.9130 -32.1464 245° Southwest  Level Estimated
09:37AM 61.8618 -32.3750 245° Southwest  Level Estimated
09:38AM 61.8101 -32.6029 244° Southwest  Level Estimated
09:39AM 61.7581 -32.8301 244° Southwest  Level Estimated
09:40AM 61.7057 -33.0564 244° Southwest  Level Estimated
09:41AM 61.6529 -33.2820 244° Southwest  Level Estimated
09:42AM 61.5998 -33.5068 244° Southwest  Level Estimated
09:43AM 61.5463 -33.7309 243° Southwest  Level Estimated
09:44AM 61.4924 -33.9542 243° Southwest  Level Estimated
09:45AM 61.4382 -34.1767 243° Southwest  Level Estimated
09:46AM 61.3836 -34.3984 243° Southwest  Level Estimated
09:47AM 61.3286 -34.6193 243° Southwest  Level Estimated
09:48AM 61.2733 -34.8395 242° Southwest  Level Estimated
09:49AM 61.2176 -35.0589 242° Southwest  Level Estimated
09:50AM 61.1616 -35.2775 242° Southwest  Level Estimated
09:51AM 61.1052 -35.4953 242° Southwest  Level Estimated
09:52AM 61.0485 -35.7124 242° Southwest  Level Estimated
09:53AM 60.9914 -35.9287 242° Southwest  Level Estimated
09:54AM 60.9340 -36.1442 241° Southwest  Level Estimated
09:55AM 60.8763 -36.3589 241° Southwest  Level Estimated
09:56AM 60.8181 -36.5729 241° Southwest  Level Estimated
09:57AM 60.7597 -36.7861 241° Southwest  Level Estimated
09:58AM 60.7009 -36.9985 241° Southwest  Level Estimated
09:59AM 60.6418 -37.2101 240° Southwest  Level Estimated
10:00AM 60.5824 -37.4209 240° Southwest  Level Estimated
10:01AM 60.5226 -37.6310 240° Southwest  Level Estimated
10:02AM 60.4625 -37.8403 240° Southwest  Level Estimated
10:03AM 60.4021 -38.0488 240° Southwest  Level Estimated
10:04AM 60.3413 -38.2565 239° Southwest  Level Estimated
10:05AM 60.2803 -38.4635 239° Southwest  Level Estimated
10:06AM 60.2188 -38.6697 239° Southwest  Level Estimated
10:07AM 60.1571 -38.8751 239° Southwest  Level Estimated
10:08AM 60.0951 -39.0798 239° Southwest  Level Estimated
10:09AM 60.0327 -39.2836 239° Southwest  Level Estimated
10:10AM 59.9701 -39.4867 238° Southwest  Level Estimated
10:11AM 59.9071 -39.6891 238° Southwest  Level Estimated
10:12AM 59.8438 -39.8907 238° Southwest  Level Estimated
10:13AM 59.7803 -40.0914 238° Southwest  Level Estimated
10:14AM 59.7164 -40.2915 238° Southwest  Level Estimated
10:15AM 59.6522 -40.4908 238° Southwest  Level Estimated
10:16AM 59.5877 -40.6893 237° Southwest  Level Estimated
10:17AM 59.5229 -40.8870 237° Southwest  Level Estimated
10:18AM 59.4578 -41.0840 237° Southwest  Level Estimated
10:19AM 59.3924 -41.2802 237° Southwest  Level Estimated
10:20AM 59.3267 -41.4757 237° Southwest  Level Estimated
10:21AM 59.2607 -41.6704 237° Southwest  Level Estimated
10:22AM 59.1945 -41.8644 236° Southwest  Level Estimated
10:23AM 59.1279 -42.0576 236° Southwest  Level Estimated
10:24AM 59.0611 -42.2500 236° Southwest  Level Estimated
10:25AM 58.9940 -42.4418 236° Southwest  Level Estimated
10:26AM 58.9266 -42.6327 236° Southwest  Level Estimated
10:27AM 58.8589 -42.8229 236° Southwest  Level Estimated
10:28AM 58.7909 -43.0124 235° Southwest  Level Estimated
10:29AM 58.7227 -43.2011 235° Southwest  Level Estimated
10:30AM 58.6542 -43.3891 235° Southwest  Level Estimated
10:31AM 58.5854 -43.5764 235° Southwest  Level Estimated
10:32AM 58.5163 -43.7629 235° Southwest  Level Estimated
10:33AM 58.4470 -43.9487 235° Southwest  Level Estimated
10:34AM 58.3774 -44.1337 234° Southwest  Level Estimated
10:35AM 58.3075 -44.3180 234° Southwest  Level Estimated
10:36AM 58.2374 -44.5016 234° Southwest  Level Estimated
10:37AM 58.1670 -44.6845 234° Southwest  Level Estimated
10:38AM 58.0964 -44.8666 234° Southwest  Level Estimated
10:39AM 58.0255 -45.0480 234° Southwest  Level Estimated
10:40AM 57.9543 -45.2287 233° Southwest  Level Estimated
10:41AM 57.8829 -45.4087 233° Southwest  Level Estimated
10:42AM 57.8112 -45.5880 233° Southwest  Level Estimated
10:43AM 57.7393 -45.7665 233° Southwest  Level Estimated
10:44AM 57.6672 -45.9444 233° Southwest  Level Estimated
10:45AM 57.5947 -46.1215 233° Southwest  Level Estimated
10:46AM 57.5221 -46.2980 233° Southwest  Level Estimated
10:47AM 57.4480 -46.4765 232° Southwest  Level Estimated
10:48AM 57.3737 -46.6543 232° Southwest  Level Estimated
10:49AM 57.2991 -46.8313 232° Southwest  Level Estimated
10:50AM 57.2243 -47.0077 232° Southwest  Level Estimated
10:51AM 57.1492 -47.1833 232° Southwest  Level Estimated
10:52AM 57.0739 -47.3582 232° Southwest  Level Estimated
10:53AM 56.9984 -47.5324 232° Southwest  Level Estimated
10:54AM 56.9226 -47.7059 231° Southwest  Level Estimated
10:55AM 56.8466 -47.8787 231° Southwest  Level Estimated
10:55AM 59.3333 -57.0333 231° Southwest 440 506 37,000  Level Gander Center
10:56AM 56.7703 -48.0508 231° Southwest  Level Estimated
10:56AM 59.2667 -57.2500 239° Southwest 440 506 37,000  Level Gander Center
10:57AM 56.6938 -48.2221 231° Southwest  Level Estimated
10:57AM 59.1833 -57.4167 226° Southwest 440 506 37,000  Level Gander Center
10:58AM 56.6171 -48.3928 231° Southwest  Level Estimated
10:58AM 59.1000 -57.5833 226° Southwest 440 506 37,000  Level Gander Center
10:59AM 56.5401 -48.5628 231° Southwest  Level Estimated
10:59AM 59.0167 -57.7500 226° Southwest 440 506 37,000  Level Gander Center
11:00AM 56.4630 -48.7321 231° Southwest  Level Estimated
11:00AM 58.9500 -57.9500 237° Southwest 440 506 37,000  Level Gander Center
11:01AM 58.8667 -58.1167 226° Southwest 440 506 37,000  Level Gander Center
11:02AM 58.7833 -58.3000 229° Southwest 440 506 37,000  Level Gander Center
11:03AM 58.7000 -58.5000 231° Southwest 440 506 37,000  Level Gander Center
11:04AM 58.6333 -58.6500 230° Southwest 440 506 37,000  Level Gander Center
11:05AM 58.5500 -58.8167 226° Southwest 430 495 37,000  Level Gander Center
11:06AM 58.4333 -58.9667 214° Southwest 430 495 37,000  Level Gander Center
11:07AM 58.3333 -59.0667 208° Southwest 440 506 37,000  Level Gander Center
11:08AM 58.2167 -59.1667 204° Southwest 440 506 37,000  Level Gander Center
11:09AM 58.1167 -59.3000 215° Southwest 440 506 37,000  Level Gander Center
11:10AM 58.0000 -59.4000 204° Southwest 440 506 37,000  Level Gander Center
11:11AM 57.9167 -59.5167 217° Southwest 440 506 37,000  Level Gander Center
11:12AM 57.8000 -59.6167 205° Southwest 440 506 37,100 300 Climbing Gander Center
11:13AM 57.7000 -59.7167 208° Southwest 440 506 37,600 360 Climbing Gander Center
11:14AM 57.5833 -59.8500 212° Southwest 440 506 37,900 180 Climbing Gander Center
11:15AM 57.4833 -59.9500 208° Southwest 440 506 38,000  Climbing Gander Center
11:16AM 57.3667 -60.0500 205° Southwest 440 506 38,000  Level Gander Center
11:17AM 57.2667 -60.1667 212° Southwest 430 495 38,000  Level Gander Center
11:18AM 57.1500 -60.2667 205° Southwest 430 495 38,000  Level Gander Center
11:19AM 57.0500 -60.3667 209° Southwest 430 495 38,000  Level Gander Center
11:20AM 56.9500 -60.4500 204° Southwest 430 495 38,000  Level Gander Center
11:21AM 56.8333 -60.5833 212° Southwest 430 495 38,000  Level Gander Center
11:22AM 56.7333 -60.6667 205° Southwest 430 495 38,000  Level Gander Center
11:23AM 56.6333 -60.7667 209° Southwest 420 483 38,000  Level Gander Center
11:24AM 56.5333 -60.8667 209° Southwest 430 495 38,000  Level Gander Center
11:25AM 56.4167 -60.9833 209° Southwest 430 495 38,000  Level Gander Center
11:26AM 56.3167 -61.0667 205° Southwest 420 483 38,000  Level Gander Center
11:27AM 56.2167 -61.1667 209° Southwest 430 495 38,000  Level Gander Center
11:28AM 56.1000 -61.2833 209° Southwest 430 495 38,000  Level Gander Center
11:29AM 56.0000 -61.3667 205° Southwest 430 495 38,000  Level Gander Center
11:30AM 55.9000 -61.4667 209° Southwest 430 495 38,000  Level Gander Center
11:31AM 55.7833 -61.5500 202° Southwest 420 483 38,000  Level Gander Center
11:32AM 55.6833 -61.6333 205° Southwest 420 483 38,000  Level Gander Center
11:33AM 55.5833 -61.7500 213° Southwest 420 483 38,000  Level Gander Center
11:34AM 55.4833 -61.8500 210° Southwest 420 483 38,000  Level Gander Center
11:35AM 55.3667 -61.9333 202° Southwest 420 483 38,000  Level Gander Center
11:36AM 55.2667 -62.0167 205° Southwest 420 483 38,000  Level Gander Center
11:37AM 55.1667 -62.1000 205° Southwest 410 472 38,000  Level Gander Center
11:38AM 55.0667 -62.1833 206° Southwest 410 472 38,000  Level Gander Center
11:39AM 54.9667 -62.3000 214° Southwest 410 472 38,000  Level Gander Center
11:40AM 54.8667 -62.3833 206° Southwest 420 483 38,000  Level Gander Center
11:41AM 54.7667 -62.4667 206° Southwest 420 483 38,000  Level Gander Center
11:42AM 54.6500 -62.5500 202° Southwest 420 483 38,000  Level Gander Center
11:43AM 54.5333 -62.6333 203° Southwest 420 483 38,000  Level Gander Center
11:44AM 54.4333 -62.7500 214° Southwest 420 483 38,000  Level Gander Center
11:45AM 54.3333 -62.8333 206° Southwest 420 483 38,000  Level Gander Center
11:46AM 54.2167 -62.9167 203° Southwest 410 472 38,000  Level Gander Center
11:47AM 54.1167 -63.0000 206° Southwest 410 472 38,000  Level Gander Center
11:48AM 54.0167 -63.0667 201° Southwest 410 472 38,000  Level Gander Center
11:49AM 53.9167 -63.1500 206° Southwest 410 472 38,000  Level Gander Center
11:50AM 53.8167 -63.2333 206° Southwest 410 472 38,000  Level Gander Center
11:51AM 53.7167 -63.3500 215° Southwest 410 472 38,000  Level Gander Center
11:52AM 53.6167 -63.4167 202° Southwest 400 460 38,000  Level Gander Center
11:53AM 53.5167 -63.5000 206° Southwest 410 472 38,000  Level Gander Center
11:54AM 53.4000 -63.5833 203° Southwest 410 472 38,000  Level Gander Center
11:55AM 53.3000 -63.6667 206° Southwest 410 472 38,000  Level Gander Center
11:56AM 53.2000 -63.7333 202° Southwest 400 460 38,000  Level Gander Center
11:57AM 53.1000 -63.8167 207° Southwest 400 460 38,000  Level Gander Center
11:58AM 53.0000 -63.9000 207° Southwest 400 460 38,000  Level Gander Center
11:59AM 52.9000 -63.9667 202° Southwest 400 460 38,000  Level Gander Center
12:00PM 52.8000 -64.0500 207° Southwest 400 460 38,000  Level Gander Center
12:01PM 52.7000 -64.1167 202° Southwest 400 460 38,000  Level Gander Center
12:02PM 52.5833 -64.2000 203° Southwest 400 460 38,000  Level Gander Center
12:03PM 52.5000 -64.2833 211° Southwest 400 460 38,000  Level Gander Center
12:04PM 52.4000 -64.3500 202° Southwest 400 460 38,000  Level Gander Center
12:05PM 52.3000 -64.4333 207° Southwest 390 449 38,000  Level Gander Center
12:06PM 52.2000 -64.5000 202° Southwest 390 449 38,000  Level Gander Center
12:07PM 52.1000 -64.5833 207° Southwest 390 449 38,000  Level Gander Center
12:08PM 52.0167 -64.6500 206° Southwest 390 449 38,000  Level Gander Center
12:09PM 51.8833 -64.7167 197° South 390 449 38,000  Level Gander Center
12:09PM 51.8167 -64.8000 218° Southwest 390 449 38,000  Level Moncton Center
12:10PM 51.7167 -64.8500 197° South 390 449 38,000  Level Moncton Center
12:11PM 51.6167 -64.9333 207° Southwest 390 449 38,000  Level Moncton Center
12:12PM 51.5167 -65.0167 207° Southwest 390 449 38,000  Level Moncton Center
12:13PM 51.4333 -65.0667 201° Southwest 380 437 38,000  Level Moncton Center
12:14PM 51.3333 -65.1500 208° Southwest 380 437 38,000  Level Moncton Center
12:15PM 51.2333 -65.2333 208° Southwest 390 449 38,000  Level Moncton Center
12:16PM 51.1333 -65.2833 197° South 390 449 38,000  Level Moncton Center
12:17PM 51.0333 -65.3500 203° Southwest 380 437 38,000  Level Moncton Center
12:18PM 50.9500 -65.4333 212° Southwest 380 437 38,000  Level Moncton Center
12:19PM 50.8500 -65.4833 198° South 380 437 38,000  Level Moncton Center
12:20PM 50.7333 -65.5667 204° Southwest 380 437 38,000  Level Moncton Center
12:21PM 50.6333 -65.6333 203° Southwest 380 437 38,000  Level Moncton Center
12:22PM 50.5500 -65.6833 201° Southwest 380 437 38,000  Level Moncton Center
12:23PM 50.4500 -65.7667 208° Southwest 370 426 38,000  Level Moncton Center
12:24PM 50.3500 -65.8167 198° South 370 426 38,000  Level Moncton Center
12:25PM 50.2667 -65.8833 207° Southwest 380 437 38,000  Level Moncton Center
12:27PM 50.1667 -65.9500 203° Southwest 380 437 38,000  Level Gander Center
12:28PM 50.0500 -66.0167 200° South 380 437 38,000  Level Gander Center
12:29PM 49.9667 -66.1000 213° Southwest 370 426 38,000  Level Gander Center
12:30PM 49.8667 -66.1667 203° Southwest 370 426 38,000  Level Gander Center
12:30PM 49.8000 -66.2167 206° Southwest 370 426 38,000  Level Moncton Center
12:31PM 49.7000 -66.2667 198° South 360 414 38,000  Level Moncton Center
12:32PM 49.6167 -66.3333 207° Southwest 360 414 38,000  Level Moncton Center
12:33PM 49.5000 -66.3833 196° South 360 414 38,000  Level Moncton Center
12:34PM 49.4167 -66.4500 207° Southwest 360 414 38,000  Level Moncton Center
12:35PM 49.3167 -66.5000 198° South 360 414 38,000  Level Moncton Center
12:36PM 49.2333 -66.5833 213° Southwest 360 414 38,000  Level Moncton Center
12:37PM 49.1333 -66.6167 192° South 360 414 38,000  Level Moncton Center
12:38PM 49.0500 -66.7000 213° Southwest 360 414 38,000  Level Moncton Center
12:39PM 48.9500 -66.7500 198° South 360 414 38,000  Level Moncton Center
12:41PM 48.8500 -66.8167 204° Southwest 360 414 38,000  Level Gander Center
12:42PM 48.7667 -66.8833 208° Southwest 360 414 38,000  Level Gander Center
12:43PM 48.6667 -66.9333 198° South 350 403 38,000  Level Gander Center
12:44PM 48.5833 -67.0000 208° Southwest 350 403 38,000  Level Gander Center
12:45PM 48.4833 -67.0667 204° Southwest 350 403 38,000  Level Gander Center
12:46PM 48.4000 -67.1000 195° South 350 403 38,000  Level Gander Center
12:46PM 48.3167 -67.1500 202° Southwest 350 403 38,000  Level Moncton Center
12:47PM 48.2333 -67.2167 208° Southwest 350 403 38,000  Level Moncton Center
12:48PM 48.1500 -67.2500 195° South 350 403 38,000  Level Moncton Center
12:49PM 48.0667 -67.3000 202° Southwest 350 403 38,000  Level Moncton Center
12:56PM 47.5012 -67.6632 202° Southwest 344 396 38,000  Level FlightAware ADS-B (CYSG)
12:57PM 47.4105 -67.7177 202° Southwest 338 389 38,000  Level FlightAware ADS-B (CYSG)
12:58PM 47.2969 -67.7858 202° Southwest 335 386 38,000  Level FlightAware ADS-B (CYSG)
01:00PM 47.1812 -67.8547 202° Southwest 333 383 38,000  Level FlightAware ADS-B (CYSG)
01:00PM 47.1471 -67.8749 202° Southwest 332 382 38,000  Level FlightAware ADS-B (CYSG)
01:01PM 47.0875 -67.9102 202° Southwest 333 383 38,000  Level FlightAware ADS-B (CYSG)
01:02PM 46.9997 -67.9623 202° Southwest 334 384 38,000  Level FlightAware ADS-B (CYSG)
01:04PM 46.8097 -68.0740 202° Southwest 336 387 38,000  Level FlightAware ADS-B (CYSG)
01:05PM 46.7531 -68.1036 200° South 350 403 38,000  Level FlightAware ADS-B (CYSG)
01:06PM 46.6028 -68.1662 196° South 357 411 38,000  Level FlightAware ADS-B (CYSG)
01:07PM 46.5291 -68.1968 196° South 361 415 38,000  Level FlightAware ADS-B (CYSG)
01:07PM 46.4793 -68.2175 196° South 363 418 38,000  Level FlightAware ADS-B (CYSG)
01:08PM 46.4171 -68.2431 196° South 365 420 38,000  Level FlightAware ADS-B (CYSG)
01:09PM 46.3521 -68.2698 196° South 365 420 38,000  Level FlightAware ADS-B (CYSG)
01:09PM 46.2861 -68.2970 196° South 365 420 38,000  Level FlightAware ADS-B (CYSG)
01:10PM 46.2234 -68.3227 196° South 366 421 38,000  Level FlightAware ADS-B (CYSG)
01:11PM 46.1547 -68.3509 196° South 367 422 38,000  Level FlightAware ADS-B (CYSG)
01:11PM 46.0881 -68.3779 196° South 366 421 38,000  Level FlightAware ADS-B (CYSG)
01:12PM 46.0253 -68.4034 196° South 366 421 38,000  Level FlightAware ADS-B (CYSG)
01:13PM 45.9661 -68.4275 196° South 365 420 38,000  Level FlightAware ADS-B (CYSG)
01:13PM 45.9007 -68.4540 196° South 365 420 38,000  Level FlightAware ADS-B (CYSG)
01:14PM 45.8042 -68.4931 196° South 369 425 38,000  Level FlightAware ADS-B (CYSG)
01:15PM 45.7348 -68.5210 196° South 370 426 38,000  Level FlightAware ADS-B (CYSG)
01:16PM 45.6646 -68.5490 196° South 370 426 38,000  Level FlightAware ADS-B (CYSG)
01:16PM 45.5977 -68.5758 196° South 370 426 38,000  Level FlightAware ADS-B (CYSG)
01:17PM 45.5344 -68.6012 196° South 373 429 38,000  Level FlightAware ADS-B (CYSG)
01:18PM 45.4697 -68.6271 196° South 376 433 38,000  Level FlightAware ADS-B (CYSG)
01:18PM 45.3979 -68.6556 196° South 379 436 38,000  Level FlightAware ADS-B (CYSG)
01:19PM 45.3309 -68.6821 196° South 380 437 38,000  Level FlightAware ADS-B (CYSG)
01:20PM 45.2623 -68.7092 196° South 381 438 38,000  Level FlightAware ADS-B (CYSG)
01:20PM 45.1962 -68.7354 196° South 383 441 38,000  Level FlightAware ADS-B (CYSG)
01:21PM 45.1269 -68.7627 196° South 386 444 38,000  Level FlightAware ADS-B (CYSG)
01:22PM 45.0557 -68.7906 195° South 388 447 38,000  Level FlightAware ADS-B (CYSG)
01:22PM 44.9933 -68.8150 195° South 389 448 38,000  Level FlightAware ADS-B (CYQI)
01:23PM 44.9191 -68.8440 195° South 389 448 38,000  Level FlightAware ADS-B (CYSG)
01:24PM 44.8609 -68.8671 196° South 384 442 38,000  Level FlightAware ADS-B (CYQI)
01:24PM 44.8205 -68.8883 200° South 377 434 38,000  Level FlightAware ADS-B (CYQI)
01:25PM 44.7566 -68.9318 206° Southwest 374 430 38,000  Level FlightAware ADS-B (CYQI)
01:25PM 44.6926 -68.9760 206° Southwest 375 432 38,000  Level FlightAware ADS-B (CYSG)
01:26PM 44.6402 -69.0118 206° Southwest 374 430 38,000  Level FlightAware ADS-B (CYQI)
01:27PM 44.5659 -69.0623 206° Southwest 377 434 38,000  Level FlightAware ADS-B (CYSG)
01:27PM 44.5016 -69.1058 206° Southwest 378 435 38,000  Level FlightAware ADS-B (CYSG)
01:28PM 44.4559 -69.1367 206° Southwest 380 437 38,000  Level FlightAware ADS-B (CYQI)
01:28PM 44.4075 -69.1693 206° Southwest 381 438 38,000  Level FlightAware ADS-B (CYSG)
01:29PM 44.3446 -69.2117 206° Southwest 381 438 38,000  Level FlightAware ADS-B (CYSG)
01:30PM 44.2977 -69.2433 206° Southwest 381 438 38,000  Level FlightAware ADS-B (CYQI)
01:30PM 44.2461 -69.2778 206° Southwest 374 430 38,000  Level FlightAware ADS-B
01:31PM 44.1814 -69.3211 206° Southwest 376 433 38,000  Level FlightAware ADS-B
01:32PM 44.1171 -69.3640 206° Southwest 376 433 38,000  Level FlightAware ADS-B
01:32PM 44.0524 -69.4070 206° Southwest 376 433 38,000  Level FlightAware ADS-B
01:33PM 43.9871 -69.4504 206° Southwest 375 432 38,000  Level FlightAware ADS-B
01:33PM 43.9263 -69.4907 206° Southwest 374 430 38,000  Level FlightAware ADS-B
01:34PM 43.8600 -69.5344 205° Southwest 378 435 38,000  Level FlightAware ADS-B
01:35PM 43.7929 -69.5788 206° Southwest 378 435 38,000  Level FlightAware ADS-B (CYQI)
01:36PM 43.7361 -69.6161 205° Southwest 378 435 38,000  Level FlightAware ADS-B
01:36PM 43.6838 -69.6505 205° Southwest 379 436 38,000  Level FlightAware ADS-B
01:37PM 43.6082 -69.7001 205° Southwest 381 438 38,000  Level FlightAware ADS-B (KBOS)
01:37PM 43.5470 -69.7401 205° Southwest 376 433 38,000  Level FlightAware ADS-B
01:38PM 43.5111 -69.7635 205° Southwest 376 433 38,000  Level FlightAware ADS-B
01:38PM 43.4903 -69.7770 205° Southwest 383 441 38,000  Level FlightAware ADS-B (KBOS)
01:38PM 43.4565 -69.7990 205° Southwest 386 444 38,000  Level FlightAware ADS-B (CYQI)
01:39PM 43.4424 -69.8070 203° Southwest 388 447 38,000  Level FlightAware ADS-B (CYQI)
01:39PM 43.3767 -69.8345 197° South 395 455 38,000  Level FlightAware ADS-B
01:40PM 43.2998 -69.8509 189° South 418 481 38,000  Level FlightAware ADS-B
01:41PM 43.2276 -69.8626 187° South 408 470 38,000  Level FlightAware ADS-B
01:41PM 43.1724 -69.8713 187° South 419 482 38,000  Level FlightAware ADS-B (KBOS)
01:42PM 43.1138 -69.8800 186° South 418 481 38,000  Level FlightAware ADS-B
01:42PM 43.0468 -69.8897 186° South 419 482 38,000  Level FlightAware ADS-B
01:43PM 42.9689 -69.9011 186° South 420 483 38,000  Level FlightAware ADS-B (KBOS)
01:43PM 42.8900 -69.9126 186° South 422 486 38,000  Level FlightAware ADS-B (KBOS)
01:44PM 42.8096 -69.9242 186° South 423 487 38,000  Level FlightAware ADS-B (KBOS)
01:45PM 42.7319 -69.9354 186° South 423 487 38,000  Level FlightAware ADS-B (KBOS)
01:46PM 42.6496 -69.9473 186° South 425 489 38,000  Level FlightAware ADS-B (KBOS)
01:46PM 42.5682 -69.9590 186° South 427 491 38,000  Level FlightAware ADS-B (KBOS)
01:47PM 42.4861 -69.9708 186° South 428 493 38,000  Level FlightAware ADS-B (KBOS)
01:47PM 42.4190 -69.9804 186° South 420 483 38,000  Level FlightAware ADS-B
01:48PM 42.3626 -69.9884 186° South 428 493 38,000  Level FlightAware ADS-B (KBOS)
01:49PM 42.2887 -69.9988 186° South 419 482 38,000  Level FlightAware ADS-B
01:49PM 42.2101 -70.0099 186° South 419 482 38,000  Level FlightAware ADS-B
01:50PM 42.1347 -70.0277 190° South 412 474 38,000  Level FlightAware ADS-B
01:50PM 42.1382 -70.0265 14° North 402 463 38,000  Level FlightAware ADS-B (KOWD)
01:51PM 42.0499 -70.0685 199° South 394 453 38,000  Level FlightAware ADS-B (KBOS)
01:51PM 42.0408 -70.0744 206° Southwest 392 451 38,000  Level FlightAware ADS-B (KOWD)
01:51PM 42.0089 -70.0970 208° Southwest 386 444 38,000  Level FlightAware ADS-B (KOWD)
01:52PM 41.9797 -70.1214 212° Southwest 378 435 38,000  Level FlightAware ADS-B (KOWD)
01:52PM 41.9162 -70.1897 219° Southwest 361 415 38,000  Level FlightAware ADS-B
01:52PM 41.8971 -70.2151 225° Southwest 357 411 38,000  Level FlightAware ADS-B
01:53PM 41.8517 -70.2813 227° Southwest 360 414 38,000  Level FlightAware ADS-B
01:54PM 41.8129 -70.3372 227° Southwest 359 413 38,000  Level FlightAware ADS-B (ZSSL)
01:54PM 41.7746 -70.3930 227° Southwest 360 414 38,000  Level FlightAware ADS-B (KOWD)
01:55PM 41.7315 -70.4558 227° Southwest 360 414 38,000  Level FlightAware ADS-B (ZSSL)
01:56PM 41.6894 -70.5170 227° Southwest 361 415 38,000  Level FlightAware ADS-B
01:56PM 41.6499 -70.5743 227° Southwest 361 415 38,000  Level FlightAware ADS-B
01:57PM 41.6159 -70.6235 227° Southwest 360 414 38,000  Level FlightAware ADS-B
01:57PM 41.5737 -70.6844 227° Southwest 361 415 38,000  Level FlightAware ADS-B (KOWD)
01:58PM 41.5298 -70.7476 227° Southwest 360 414 38,000  Level FlightAware ADS-B (ZSSL)
01:59PM 41.4879 -70.8079 227° Southwest 359 413 38,000  Level FlightAware ADS-B
01:59PM 41.4465 -70.8671 227° Southwest 359 413 38,000  Level FlightAware ADS-B
02:00PM 41.3956 -70.9401 227° Southwest 360 414 38,000  Level FlightAware ADS-B
02:01PM 41.3506 -71.0044 227° Southwest 360 414 38,000  Level FlightAware ADS-B
02:01PM 41.3054 -71.0688 227° Southwest 360 414 38,000  Level FlightAware ADS-B
02:01PM 41.3468 -71.0099 47° Northeast 356 410 38,000  Level FlightAware ADS-B (KOWD)
02:02PM 41.2480 -71.1729 231° Southwest 343 395 38,000  Level FlightAware ADS-B
02:03PM 41.2234 -71.2493 247° West 335 386 38,000  Level FlightAware ADS-B
02:04PM 41.2022 -71.3263 250° West 336 387 38,000  Level FlightAware ADS-B
02:04PM 41.1807 -71.4023 249° West 335 386 38,000  Level FlightAware ADS-B
02:05PM 41.1637 -71.4633 250° West 334 384 38,000  Level FlightAware ADS-B
02:05PM 41.1443 -71.5157 244° Southwest 343 395 38,000  Level FlightAware ADS-B (ZSSL)
02:06PM 41.1549 -71.4929 58° Northeast 357 411 38,000  Level FlightAware ADS-B (KSNC)
02:07PM 41.0114 -71.6972 227° Southwest 359 413 38,000  Level FlightAware ADS-B (KSNC)
02:08PM 40.9634 -71.7620 226° Southwest 359 413 38,000  Level FlightAware ADS-B (KSNC)
02:09PM 40.8962 -71.8526 226° Southwest 359 413 38,000  Level FlightAware ADS-B (KSNC)
02:10PM 40.8471 -71.9186 225° Southwest 360 414 38,000  Level FlightAware ADS-B (KSNC)
02:11PM 40.7492 -72.0498 225° Southwest 362 417 38,000  Level FlightAware ADS-B (KSNC)
02:12PM 40.6771 -72.1462 225° Southwest 362 417 38,000  Level FlightAware ADS-B (KSNC)
02:13PM 40.6321 -72.2065 225° Southwest 362 417 38,000  Level FlightAware ADS-B (KSNC)
02:13PM 40.5798 -72.2764 225° Southwest 362 417 38,000  Level FlightAware ADS-B (KSNC)
02:14PM 40.5384 -72.3316 225° Southwest 362 417 38,000  Level FlightAware ADS-B (KSNC)
02:15PM 40.4860 -72.4013 225° Southwest 363 418 38,000  Level FlightAware ADS-B (KSNC)
02:15PM 40.4382 -72.4646 225° Southwest 363 418 38,000  Level FlightAware ADS-B (KSNC)
02:16PM 40.3857 -72.5340 225° Southwest 364 419 38,000  Level FlightAware ADS-B (KSNC)
02:17PM 40.3383 -72.5966 225° Southwest 363 418 38,000  Level FlightAware ADS-B (KWWD)
02:17PM 40.3045 -72.6412 225° Southwest 363 418 38,000  Level FlightAware ADS-B (KSNC)
02:18PM 40.2543 -72.7071 225° Southwest 362 417 38,000  Level FlightAware ADS-B (KSNC)
02:19PM 40.2083 -72.7676 225° Southwest 361 415 38,000  Level FlightAware ADS-B (KSNC)
02:20PM 40.1225 -72.8801 225° Southwest 367 422 38,000  Level FlightAware ADS-B (KSNC)
02:20PM 40.0819 -72.9330 225° Southwest 369 425 38,000  Level FlightAware ADS-B (KPVU)
02:21PM 40.0378 -72.9905 225° Southwest 372 428 38,000  Level FlightAware ADS-B (KPVU)
02:21PM 40.0056 -73.0324 225° Southwest 368 423 38,000  Level FlightAware ADS-B (KWWD)
02:22PM 39.9790 -73.0670 225° Southwest 374 430 38,000  Level FlightAware ADS-B (KPVU)
02:22PM 39.9701 -73.0784 225° Southwest 369 425 38,000  Level FlightAware ADS-B (KWWD)
02:22PM 39.9348 -73.1243 225° Southwest 376 433 38,000  Level FlightAware ADS-B (KSNC)
02:23PM 39.8827 -73.1918 225° Southwest 374 430 38,000  Level FlightAware ADS-B (KPVU)
02:24PM 39.8576 -73.2242 225° Southwest 375 432 38,000  Level FlightAware ADS-B (KSNC)
02:24PM 39.7943 -73.3057 225° Southwest 375 432 38,000  Level FlightAware ADS-B (KPVU)
02:25PM 39.7531 -73.3588 225° Southwest 376 433 38,000  Level FlightAware ADS-B (KSNC)
02:25PM 39.7077 -73.4171 225° Southwest 377 434 38,000  Level FlightAware ADS-B (KPVU)
02:26PM 39.6604 -73.4778 225° Southwest 378 435 38,000  Level FlightAware ADS-B (KPVU)
02:27PM 39.6175 -73.5322 224° Southwest 380 437 38,000  Level FlightAware ADS-B (KPVU)
02:27PM 39.6028 -73.5477 219° Southwest 383 441 38,000  Level FlightAware ADS-B (KWWD)
02:27PM 39.5439 -73.6000 214° Southwest 390 449 38,000  Level FlightAware ADS-B (KWWD)
02:28PM 39.4796 -73.6575 215° Southwest 389 448 38,000  Level FlightAware ADS-B (KWWD)
02:29PM 39.4205 -73.7101 215° Southwest 389 448 38,000  Level FlightAware ADS-B (KWWD)
02:30PM 39.3613 -73.7628 215° Southwest 389 448 38,000  Level FlightAware ADS-B (KSNC)
02:30PM 39.3019 -73.8155 215° Southwest 390 449 38,000  Level FlightAware ADS-B (KWWD)
02:31PM 39.2418 -73.8690 215° Southwest 390 449 38,000  Level FlightAware ADS-B (KWWD)
02:32PM 39.1846 -73.9196 214° Southwest 391 450 38,000  Level FlightAware ADS-B (KWWD)
02:32PM 39.1240 -73.9732 214° Southwest 391 450 38,000  Level FlightAware ADS-B (KWWD)
02:33PM 39.0665 -74.0239 214° Southwest 391 450 38,000  Level FlightAware ADS-B (KSNC)
02:34PM 39.0051 -74.0780 214° Southwest 392 451 38,000  Level FlightAware ADS-B (KWWD)
02:34PM 38.9452 -74.1308 214° Southwest 393 452 38,000  Level FlightAware ADS-B (KWWD)
02:35PM 38.8862 -74.1824 214° Southwest 393 452 38,000  Level FlightAware ADS-B (KWWD)
02:36PM 38.8245 -74.2364 214° Southwest 394 453 38,000  Level FlightAware ADS-B (KWWD)
02:36PM 38.7631 -74.2900 214° Southwest 394 453 38,000  Level FlightAware ADS-B (KWWD)
02:37PM 38.7019 -74.3433 214° Southwest 393 452 38,000  Level FlightAware ADS-B (KWWD)
02:38PM 38.6477 -74.3903 214° Southwest 392 451 38,000  Level FlightAware ADS-B (KWWD)
02:38PM 38.5841 -74.4455 214° Southwest 389 448 38,000  Level FlightAware ADS-B (KWWD)
02:39PM 38.5238 -74.4977 214° Southwest 389 448 38,000  Level FlightAware ADS-B (KWWD)
02:39PM 38.4733 -74.5414 214° Southwest 389 448 38,000  Level FlightAware ADS-B
02:40PM 38.4168 -74.5902 214° Southwest 390 449 38,000  Level FlightAware ADS-B
02:41PM 38.3437 -74.6532 214° Southwest 392 451 38,000  Level FlightAware ADS-B (KWWD)
02:42PM 38.2850 -74.7036 214° Southwest 393 452 38,000  Level FlightAware ADS-B (KWWD)
02:42PM 38.2239 -74.7559 214° Southwest 393 452 38,000  Level FlightAware ADS-B (KWWD)
02:43PM 38.1617 -74.8091 214° Southwest 392 451 38,000  Level FlightAware ADS-B (KWWD)
02:43PM 38.1146 -74.8494 214° Southwest 393 452 38,000  Level FlightAware ADS-B (KSBY)
02:44PM 38.0428 -74.9106 214° Southwest 393 452 38,000  Level FlightAware ADS-B (KWWD)
02:45PM 37.9816 -74.9626 214° Southwest 393 452 38,000  Level FlightAware ADS-B (KWWD)
02:45PM 37.9387 -74.9989 214° Southwest 394 453 38,000  Level FlightAware ADS-B (KSBY)
02:46PM 37.8908 -75.0396 214° Southwest 395 455 38,000  Level FlightAware ADS-B (KSBY)
02:47PM 37.8015 -75.1150 214° Southwest 391 450 38,000  Level FlightAware ADS-B (KWWD)
02:47PM 37.7546 -75.1546 214° Southwest 399 459 38,000  Level FlightAware ADS-B (KSBY)
02:48PM 37.6897 -75.2093 214° Southwest 399 459 38,000  Level FlightAware ADS-B (KSBY)
02:49PM 37.6281 -75.2610 214° Southwest 399 459 38,000  Level FlightAware ADS-B (KSBY)
02:50PM 37.5533 -75.3238 214° Southwest 398 458 38,000  Level FlightAware ADS-B (KSBY)
02:50PM 37.4954 -75.3722 214° Southwest 397 457 38,000  Level FlightAware ADS-B (KSBY)
02:51PM 37.4386 -75.4196 214° Southwest 397 457 38,000  Level FlightAware ADS-B (KSBY)
02:52PM 37.3779 -75.4703 214° Southwest 397 457 38,000  Level FlightAware ADS-B (KSBY)
02:52PM 37.3242 -75.5149 213° Southwest 398 458 38,000  Level FlightAware ADS-B (KSBY)
02:53PM 37.2639 -75.5650 213° Southwest 398 458 38,000  Level FlightAware ADS-B (KSBY)
02:54PM 37.1869 -75.6287 213° Southwest 392 451 38,000  Level FlightAware ADS-B (KWWD)
02:54PM 37.1221 -75.6823 213° Southwest 392 451 38,000  Level FlightAware ADS-B (KWWD)
02:55PM 37.1011 -75.6996 213° Southwest 398 458 38,000  Level FlightAware ADS-B
02:56PM 37.0076 -75.7766 213° Southwest 393 452 38,000  Level FlightAware ADS-B (KWWD)
02:56PM 36.9583 -75.8172 213° Southwest 393 452 38,000  Level FlightAware ADS-B (KWWD)
02:57PM 36.9034 -75.8623 213° Southwest 400 460 38,000  Level FlightAware ADS-B
02:57PM 36.8394 -75.9146 213° Southwest 400 460 38,000  Level FlightAware ADS-B
02:58PM 36.7754 -75.9669 213° Southwest 400 460 38,000  Level FlightAware ADS-B
02:59PM 36.7137 -76.0173 213° Southwest 399 459 38,000  Level FlightAware ADS-B
02:59PM 36.6501 -76.0691 213° Southwest 399 459 38,000  Level FlightAware ADS-B
03:00PM 36.5880 -76.1196 213° Southwest 402 463 38,000  Level FlightAware ADS-B
03:01PM 36.5285 -76.1678 213° Southwest 403 464 38,000  Level FlightAware ADS-B
03:01PM 36.4703 -76.2150 213° Southwest 403 464 38,000  Level FlightAware ADS-B (KWWD)
03:02PM 36.4201 -76.2555 213° Southwest 401 461 38,000  Level FlightAware ADS-B (KWWD)
03:02PM 36.3707 -76.2954 213° Southwest 401 461 38,000  Level FlightAware ADS-B
03:03PM 36.3100 -76.3442 213° Southwest 401 461 38,000  Level FlightAware ADS-B
03:04PM 36.2458 -76.3959 213° Southwest 401 461 38,000  Level FlightAware ADS-B
03:04PM 36.1999 -76.4327 213° Southwest 402 463 38,000  Level FlightAware ADS-B
03:06PM 36.0732 -76.5341 213° Southwest 403 464 38,000  Level FlightAware ADS-B
03:07PM 35.9133 -76.6589 213° Southwest 395 455 38,000  Level Washington Center
03:08PM 35.8208 -76.7344 214° Southwest 395 455 38,000  Level Washington Center
03:09PM 35.7264 -76.8100 213° Southwest 400 460 38,000  Level Washington Center
03:10PM 35.6506 -76.8650 211° Southwest 400 460 38,000  Level Washington Center
03:11PM 35.5433 -76.9553 214° Southwest 395 455 38,000  Level Washington Center
03:12PM 35.4464 -77.0300 212° Southwest 395 455 38,000  Level Washington Center
03:13PM 35.3517 -77.1022 212° Southwest 401 461 38,000  Level Washington Center
03:14PM 35.2567 -77.1767 213° Southwest 401 461 38,000  Level Washington Center
03:15PM 35.1619 -77.2511 213° Southwest 406 467 38,000  Level Washington Center
03:16PM 35.0689 -77.3253 213° Southwest 406 467 38,000  Level Washington Center
03:17PM 34.9719 -77.3967 211° Southwest 406 467 38,000  Level Washington Center
03:18PM 34.8789 -77.4706 213° Southwest 412 474 38,000  Level Washington Center
03:19PM 34.7858 -77.5469 214° Southwest 412 474 38,000  Level Washington Center
03:20PM 34.6867 -77.6203 211° Southwest 418 481 38,000  Level Washington Center
03:22PM 34.4964 -77.7692 211° Southwest 417 480 38,000  Level Washington Center
03:23PM 34.4011 -77.8397 211° Southwest 417 480 38,000  Level Washington Center
03:24PM 34.2917 -77.8919 202° Southwest 417 480 38,000  Level Washington Center
03:27PM 34.0425 -77.9631 193° South 438 504 38,000  Level Jacksonville Center
03:28PM 33.9250 -77.9997 195° South 438 504 38,000  Level Jacksonville Center
03:29PM 33.8075 -78.0314 193° South 438 504 38,000  Level Jacksonville Center
03:30PM 33.6897 -78.0628 193° South 438 504 38,000  Level Jacksonville Center
03:31PM 33.5703 -78.1017 195° South 443 510 38,000  Level Jacksonville Center
03:31PM 33.4525 -78.1356 194° South 443 510 38,000  Level Jacksonville Center
03:33PM 33.3328 -78.1667 192° South 443 510 38,000  Level Jacksonville Center
03:34PM 33.2150 -78.2003 193° South 448 516 38,000  Level Jacksonville Center
03:35PM 33.0972 -78.2361 194° South 448 516 38,000  Level Jacksonville Center
03:35PM 32.9775 -78.2697 193° South 448 516 38,000  Level Jacksonville Center
03:36PM 32.8575 -78.3006 192° South 448 516 38,000  Level Jacksonville Center
03:37PM 32.7419 -78.3336 194° South 448 516 38,000  Level Jacksonville Center
03:39PM 32.6222 -78.3669 193° South 448 516 38,000  Level Jacksonville Center
03:40PM 32.5022 -78.4022 194° South 448 516 38,000  Level Jacksonville Center
03:40PM 32.3803 -78.4306 191° South 448 516 38,000  Level Jacksonville Center
03:42PM 32.2647 -78.4706 196° South 448 516 38,000  Level Jacksonville Center
03:43PM 32.1428 -78.5058 194° South 448 516 38,000  Level Jacksonville Center
03:44PM 32.0250 -78.5408 194° South 448 516 38,000  Level Jacksonville Center
03:45PM 31.9053 -78.5783 195° South 448 516 38,000  Level Jacksonville Center
03:46PM 31.7872 -78.6108 193° South 448 516 38,000  Level Jacksonville Center
03:47PM 31.6675 -78.6456 194° South 448 516 38,000  Level Jacksonville Center
03:48PM 31.5453 -78.6803 194° South 448 516 38,000  Level Jacksonville Center
03:49PM 31.4236 -78.7175 195° South 448 516 38,000  Level Jacksonville Center
03:50PM 31.3033 -78.7497 193° South 453 521 38,000  Level Jacksonville Center
03:51PM 31.1833 -78.7817 193° South 447 514 38,000  Level Jacksonville Center
03:52PM 31.0633 -78.8158 194° South 447 514 38,000  Level Jacksonville Center
03:53PM 30.9331 -78.8531 194° South 446 513 38,000  Level Jacksonville Center
03:54PM 30.8111 -78.8872 194° South 452 520 38,000  Level Jacksonville Center
03:55PM 30.6069 -78.9444 194° South 448 516 38,000  Level Miami Center
03:56PM 30.4856 -78.9758 193° South 448 516 38,000  Level Miami Center
03:57PM 30.3661 -79.0192 197° South 448 516 38,000  Level Miami Center
03:58PM 30.2467 -79.0647 198° South 453 521 38,000  Level Miami Center
03:59PM 30.1353 -79.1103 199° South 447 514 38,000  Level Miami Center
04:00PM 30.0389 -79.1442 197° South 447 514 38,000  Level Miami Center
04:01PM 29.9044 -79.2036 201° Southwest 442 509 38,000  Level Miami Center
04:02PM 29.7911 -79.2514 200° South 442 509 38,000  Level Miami Center
04:03PM 29.6758 -79.2942 198° South 442 509 38,000  Level Miami Center
04:04PM 29.5561 -79.3344 196° South 448 516 38,000  Level Miami Center
04:05PM 29.4428 -79.3794 199° South 442 509 38,000  Level Miami Center
04:11PM 28.8180 -79.6113 199° South 436 502 38,000  Level FlightAware ADS-B (KMCO)
04:12PM 28.7361 -79.6420 198° South 436 502 38,000  Level FlightAware ADS-B (KMCO)
04:12PM 28.6173 -79.6867 198° South 437 503 38,000  Level FlightAware ADS-B (KMCO)
04:13PM 28.4864 -79.7357 198° South 438 504 38,000  Level FlightAware ADS-B (KMCO)
04:14PM 28.4031 -79.7667 198° South 437 503 38,000  Level FlightAware ADS-B (KMCO)
04:15PM 28.3229 -79.7964 198° South 435 501 38,000  Level FlightAware ADS-B (KMCO)
04:16PM 28.2458 -79.8250 198° South 435 501 38,000  Level FlightAware ADS-B (KMCO)
04:16PM 28.1716 -79.8527 198° South 435 501 38,000  Level FlightAware ADS-B (KMCO)
04:17PM 28.1005 -79.8791 198° South 436 502 38,000  Level FlightAware ADS-B (KMCO)
04:18PM 27.9838 -79.9224 198° South 437 503 38,000  Level FlightAware ADS-B (KMCO)
04:19PM 27.9032 -79.9520 198° South 437 503 38,000  Level FlightAware ADS-B (KMCO)
04:19PM 27.8238 -79.9812 198° South 437 503 38,000  Level FlightAware ADS-B (KMCO)
04:20PM 27.7452 -80.0102 198° South 439 505 38,000  Level FlightAware ADS-B (KMCO)
04:21PM 27.6694 -80.0381 198° South 440 506 38,000  Level FlightAware ADS-B (KMCO)
04:21PM 27.5929 -80.0661 198° South 441 507 38,000  Level FlightAware ADS-B (KMCO)
04:22PM 27.5179 -80.0936 198° South 440 506 38,000  Level FlightAware ADS-B (KMCO)
04:23PM 27.4389 -80.1226 198° South 440 506 38,000  Level FlightAware ADS-B (KMCO)
04:23PM 27.3473 -80.1561 198° South 441 507 38,000  Level FlightAware ADS-B (KMCO)
04:24PM 27.2602 -80.1878 198° South 442 509 38,000  Level FlightAware ADS-B (KMCO)
04:25PM 27.1902 -80.2134 198° South 443 510 38,000  Level FlightAware ADS-B (KMCO)
04:26PM 27.0694 -80.2573 198° South 442 509 38,000  Level FlightAware ADS-B (KMCO)
04:26PM 27.0087 -80.2793 198° South 442 509 38,000  Level FlightAware ADS-B (KMCO)
04:28PM 26.7982 -80.3555 198° South 442 509 38,000  Level FlightAware ADS-B (KMCO)
04:29PM 26.7404 -80.3763 198° South 443 510 38,000  Level FlightAware ADS-B (KMCO)
04:32PM 26.2977 -80.5354 198° South 447 514 38,000  Level FlightAware ADS-B (KMCO)
04:33PM 26.1983 -80.5706 198° South 442 509 38,000  Level Miami Center
04:34PM 26.0803 -80.6156 199° South 442 509 38,000  Level Miami Center
04:35PM 25.9619 -80.6581 198° South 447 514 38,000  Level Miami Center
04:36PM 25.8439 -80.7028 199° South 447 514 38,000  Level Miami Center
04:37PM 25.7258 -80.7450 198° South 447 514 38,000  Level Miami Center
04:38PM 25.6075 -80.7944 201° Southwest 452 520 38,000  Level Miami Center
04:39PM 25.5194 -80.8858 223° Southwest 437 503 38,000  Level Miami Center
04:40PM 25.4356 -80.9772 225° Southwest 437 503 38,000  Level Miami Center
04:41PM 25.3492 -81.0708 224° Southwest 437 503 38,000 -300 Level Miami Center
04:42PM 25.2631 -81.1667 225° Southwest 437 503 37,400 -840 Descending Miami Center
04:43PM 25.1789 -81.2600 225° Southwest 437 503 36,400 -1,020 Descending Miami Center
04:44PM 25.0906 -81.3508 223° Southwest 443 510 35,400 -1,200 Descending Miami Center
04:45PM 25.0106 -81.4397 225° Southwest 443 510 34,100 -1,260 Descending Miami Center
04:46PM 24.9217 -81.5372 225° Southwest 449 517 32,900 -1,140 Descending Miami Center
04:47PM 24.8375 -81.6278 224° Southwest 443 510 31,900 -1,020 Descending Miami Center
04:48PM 24.7506 -81.7272 226° Southwest 448 516 30,900 -1,080 Descending Miami Center
04:49PM 24.6508 -81.8375 225° Southwest 459 528 29,800 -1,020 Descending Miami Center
04:50PM 24.5689 -81.9164 221° Southwest 454 522 28,900 -960 Descending Miami Center
04:51PM 24.4822 -82.0067 223° Southwest 442 509 27,900 -1,020 Descending Miami Center
04:52PM 24.3975 -82.0989 225° Southwest 437 503 26,900 -1,020 Descending Miami Center
04:53PM 24.3172 -82.1911 226° Southwest 432 497 25,900 -1,020 Descending Miami Center
04:54PM 24.2283 -82.2783 222° Southwest 426 490 24,900 -1,140 Descending Miami Center
04:55PM 24.1436 -82.3703 225° Southwest 426 490 23,700 -1,260 Descending Miami Center
04:56PM 24.0442 -82.4592 219° Southwest 426 490 22,400 -1,320 Descending Miami Center
04:58PM 23.9283 -82.5064 173° South  Level FlightAware Approximate
05:05PM 23.1073 -82.4115 170° South  Level FlightAware Approximate
05:06PM 22.9902 -82.4000 180° South  Level FlightAware Approximate
05:07PM 22.9891 -82.4091 180° South  Level Estimated
05:08PM 22.9891 -82.4091 180° South  Level Estimated
05:09PM 22.9891 -82.4091 180° South  Level Estimated
05:10PM 22.9891 -82.4091 180° South  Level Estimated
05:11PM 22.9891 -82.4091 180° South  Level Estimated
05:12PM 22.9891 -82.4091 180° South  Level Estimated
05:13PM 22.9891 -82.4091 180° South  Level Estimated
05:14PM 22.9891 -82.4091 180° South  Level Estimated
05:15PM 22.9891 -82.4091 180° South  Level Estimated
05:16PM 22.9891 -82.4091 180° South  Level Estimated
05:17PM 22.9891 -82.4091 180° South  Level Estimated
05:18PM 22.9891 -82.4091 180° South  Level Estimated
05:19PM 22.9891 -82.4091 180° South  Level Estimated
05:20PM 22.9891 -82.4091 180° South  Level Estimated
05:21PM 22.9891 -82.4091 180° South  Level Estimated
05:22PM 22.9891 -82.4091 180° South  Level Estimated
05:23PM 22.9891 -82.4091 180° South  Level Estimated
05:24PM 22.9891 -82.4091 180° South  Level Estimated
05:25PM 22.9891 -82.4091 180° South  Level Estimated
05:26PM 22.9891 -82.4091 180° South  Level Estimated
05:27PM 22.9891 -82.4091 180° South  Level Estimated
05:28PM 22.9891 -82.4091 180° South  Level Estimated